Time;durP1;ratioP1;P1;durP2;ratioP2;P2;SDS_P1;SDS_P2;PMS_P1;PMS_P2;Temp;Humidity;BMP_temperature;BMP_pressure;BME280_temperature;BME280_humidity;BME280_pressure;Samples;Min_cycle;Max_cycle;Signal;HPM_P1;HPM_P2
2023/02/05 00:01:51;;;;;;;12.80;11.70;;;0.10;86.50;;;;;;5032656;28;20282;-91
2023/02/05 00:04:17;;;;;;;13.00;11.90;;;0.10;86.60;;;;;;5032747;28;20182;-91
2023/02/05 00:06:43;;;;;;;11.77;10.87;;;0.10;86.70;;;;;;5033728;28;20241;-91
2023/02/05 00:09:09;;;;;;;12.47;11.47;;;0.00;86.80;;;;;;5032682;28;20241;-91
2023/02/05 00:11:34;;;;;;;12.40;11.30;;;0.00;86.90;;;;;;5034018;28;20199;-91
2023/02/05 00:14:00;;;;;;;12.53;11.23;;;0.00;87.00;;;;;;5032595;28;20250;-90
2023/02/05 00:16:25;;;;;;;12.33;11.13;;;0.00;87.10;;;;;;5032387;28;20204;-91
2023/02/05 00:18:51;;;;;;;12.77;11.50;;;0.00;87.20;;;;;;5032455;28;20272;-91
2023/02/05 00:21:19;;;;;;;12.00;11.07;;;0.00;87.20;;;;;;5032289;28;20230;-91
2023/02/05 00:23:45;;;;;;;12.30;11.30;;;0.00;87.30;;;;;;5033252;28;20266;-91
2023/02/05 00:26:13;;;;;;;11.57;10.63;;;0.00;87.20;;;;;;5032288;28;20189;-91
2023/02/05 00:28:39;;;;;;;12.30;11.27;;;0.00;87.10;;;;;;5032320;28;20233;-91
2023/02/05 00:31:23;;;;;;;13.10;11.90;;;0.00;87.10;;;;;;5032197;28;20203;-91
2023/02/05 00:33:50;;;;;;;12.17;11.20;;;0.00;87.00;;;;;;5033617;28;20179;-91
2023/02/05 00:36:17;;;;;;;13.70;11.20;;;0.00;87.10;;;;;;5032115;28;20227;-91
2023/02/05 00:38:43;;;;;;;13.27;11.83;;;0.00;87.10;;;;;;5032325;28;20729;-91
2023/02/05 00:41:10;;;;;;;12.57;11.57;;;0.00;87.00;;;;;;5032976;28;20200;-91
2023/02/05 00:43:36;;;;;;;11.83;10.93;;;0.00;86.90;;;;;;5032235;28;20191;-91
2023/02/05 00:46:02;;;;;;;11.47;10.57;;;0.00;86.90;;;;;;5032161;28;20183;-91
2023/02/05 00:48:28;;;;;;;11.97;10.97;;;0.10;86.90;;;;;;5032176;28;20305;-90
2023/02/05 00:50:53;;;;;;;11.83;10.93;;;0.10;86.70;;;;;;5031927;28;20203;-91
2023/02/05 00:53:21;;;;;;;12.13;11.23;;;0.10;86.70;;;;;;5032748;28;20183;-91
2023/02/05 00:55:46;;;;;;;11.87;10.77;;;0.10;86.70;;;;;;5032003;28;20258;-90
2023/02/05 00:58:12;;;;;;;12.20;11.10;;;0.20;86.70;;;;;;5033549;28;20176;-90
2023/02/05 01:00:38;;;;;;;12.20;11.03;;;0.20;86.50;;;;;;5037285;28;20195;-91
2023/02/05 01:03:04;;;;;;;11.93;10.93;;;0.20;86.30;;;;;;5036472;28;20183;-90
2023/02/05 01:05:29;;;;;;;12.97;11.63;;;0.30;86.30;;;;;;5036096;28;20598;-91
2023/02/05 01:07:55;;;;;;;12.60;11.60;;;0.20;86.20;;;;;;5036014;28;20271;-91
2023/02/05 01:10:21;;;;;;;12.73;11.73;;;0.10;86.30;;;;;;5035842;28;20270;-91
2023/02/05 01:12:48;;;;;;;12.90;11.77;;;0.10;86.40;;;;;;5035910;28;20737;-91
2023/02/05 01:15:13;;;;;;;12.67;11.57;;;0.20;86.40;;;;;;5035812;28;20274;-91
2023/02/05 01:17:39;;;;;;;12.53;11.53;;;0.10;86.20;;;;;;5035898;28;20265;-92
2023/02/05 01:20:06;;;;;;;12.47;11.47;;;0.20;86.40;;;;;;5035739;28;20188;-89
2023/02/05 01:22:31;;;;;;;12.83;11.73;;;0.10;86.30;;;;;;5035561;28;20237;-91
2023/02/05 01:24:57;;;;;;;12.67;11.57;;;0.10;86.50;;;;;;5036859;28;20180;-91
2023/02/05 01:27:23;;;;;;;12.67;11.63;;;0.10;86.50;;;;;;5035625;28;20329;-91
2023/02/05 01:29:49;;;;;;;12.43;11.43;;;0.10;86.40;;;;;;5035791;28;20198;-91
2023/02/05 01:32:16;;;;;;;13.37;11.40;;;0.10;86.30;;;;;;5035586;28;20211;-91
2023/02/05 01:34:41;;;;;;;12.43;11.43;;;0.00;86.50;;;;;;5035526;28;20182;-91
2023/02/05 01:37:07;;;;;;;13.00;11.83;;;0.00;86.60;;;;;;5035436;28;20290;-90
2023/02/05 01:39:32;;;;;;;12.60;11.60;;;0.00;86.50;;;;;;5035510;28;20184;-91
2023/02/05 01:41:58;;;;;;;13.00;11.93;;;0.00;86.70;;;;;;5035293;28;20232;-90
2023/02/05 01:44:24;;;;;;;12.17;11.00;;;0.00;86.80;;;;;;5035319;28;20178;-90
2023/02/05 01:46:52;;;;;;;11.93;10.97;;;0.00;86.70;;;;;;5035162;28;20283;-91
2023/02/05 01:49:26;;;;;;;13.20;11.70;;;-0.20;86.70;;;;;;5035272;28;20660;-90
2023/02/05 01:51:55;;;;;;;12.27;11.07;;;-0.20;86.90;;;;;;5036338;28;20225;-91
2023/02/05 01:54:24;;;;;;;11.27;10.43;;;-0.10;87.10;;;;;;5035160;28;20554;-91
2023/02/05 01:57:00;;;;;;;11.93;11.03;;;0.00;87.00;;;;;;5034981;28;20630;-91
2023/02/05 01:59:29;;;;;;;12.30;11.33;;;0.00;87.00;;;;;;5035018;28;20188;-91
2023/02/05 02:01:55;;;;;;;12.43;11.37;;;0.00;86.90;;;;;;5035012;28;20678;-91
2023/02/05 02:04:36;;;;;;;12.50;11.47;;;0.00;86.90;;;;;;5034938;28;20184;-90
2023/02/05 02:07:02;;;;;;;12.97;11.93;;;0.00;86.70;;;;;;5035072;28;20700;-91
2023/02/05 02:09:28;;;;;;;12.87;11.87;;;0.00;86.70;;;;;;5034607;28;20172;-91
2023/02/05 02:11:55;;;;;;;12.10;11.20;;;0.00;86.70;;;;;;5034847;28;20203;-92
2023/02/05 02:14:21;;;;;;;12.80;11.80;;;0.00;86.70;;;;;;5034816;28;20183;-91
2023/02/05 02:16:47;;;;;;;13.53;12.50;;;-0.10;86.70;;;;;;5035904;28;20235;-91
2023/02/05 02:19:24;;;;;;;13.27;12.07;;;-0.10;86.80;;;;;;5034953;28;20280;-91
2023/02/05 02:22:00;;;;;;;13.47;12.47;;;-0.10;87.00;;;;;;5034604;28;20567;-90
2023/02/05 02:24:50;;;;;;;12.93;11.73;;;-0.10;87.10;;;;;;5034626;28;20542;-91
2023/02/05 02:27:27;;;;;;;12.53;11.53;;;-0.20;87.20;;;;;;5034541;28;20234;-90
2023/02/05 02:30:01;;;;;;;12.73;11.67;;;-0.20;87.20;;;;;;5034570;28;20274;-91
2023/02/05 02:32:45;;;;;;;11.73;10.83;;;-0.20;87.40;;;;;;5035689;28;20277;-91
2023/02/05 02:35:26;;;;;;;12.93;11.60;;;-0.20;87.40;;;;;;5035861;28;20187;-91
2023/02/05 02:37:57;;;;;;;12.97;11.93;;;-0.20;87.50;;;;;;5034354;28;20211;-91
2023/02/05 02:40:33;;;;;;;12.20;11.10;;;-0.20;87.50;;;;;;5034229;28;20186;-91
2023/02/05 02:43:10;;;;;;;13.03;11.77;;;-0.30;87.60;;;;;;5034244;28;20274;-91
2023/02/05 02:45:42;;;;;;;12.60;11.67;;;-0.30;87.70;;;;;;5034240;28;20224;-91
2023/02/05 02:48:09;;;;;;;12.93;11.67;;;-0.40;87.70;;;;;;5034583;28;20205;-90
2023/02/05 02:50:39;;;;;;;12.37;11.30;;;-0.30;87.90;;;;;;5034189;28;20287;-91
2023/02/05 02:53:15;;;;;;;14.23;13.13;;;-0.20;88.00;;;;;;5034141;28;20204;-90
2023/02/05 02:55:43;;;;;;;12.53;11.57;;;-0.20;87.60;;;;;;5034001;28;20192;-91
2023/02/05 02:58:20;;;;;;;13.60;12.40;;;-0.20;87.70;;;;;;5034058;28;20172;-91
2023/02/05 03:00:47;;;;;;;12.43;11.50;;;-0.10;87.80;;;;;;5035390;28;20187;-90
2023/02/05 03:03:16;;;;;;;12.30;11.23;;;-0.10;87.70;;;;;;5034015;28;20597;-90
2023/02/05 03:05:44;;;;;;;13.07;11.97;;;0.00;87.60;;;;;;5033864;28;20182;-91
2023/02/05 03:08:35;;;;;;;13.90;12.20;;;-0.10;87.50;;;;;;5033749;28;20190;-90
2023/02/05 03:11:13;;;;;;;12.37;11.37;;;0.00;87.50;;;;;;5033733;28;20199;-90
2023/02/05 03:13:39;;;;;;;13.07;11.93;;;0.00;87.40;;;;;;5033759;28;20172;-91
2023/02/05 03:16:05;;;;;;;12.50;11.50;;;-0.10;87.40;;;;;;5033536;28;20203;-91
2023/02/05 03:18:31;;;;;;;13.33;11.97;;;-0.10;87.60;;;;;;5033651;28;20680;-91
2023/02/05 03:21:01;;;;;;;13.13;11.97;;;0.00;87.60;;;;;;5032828;28;20613;-90
2023/02/05 03:23:27;;;;;;;13.10;11.77;;;0.00;87.50;;;;;;5034374;28;20268;-90
2023/02/05 03:25:53;;;;;;;12.67;11.77;;;0.00;87.60;;;;;;5033489;28;20219;-91
2023/02/05 03:28:18;;;;;;;13.73;12.63;;;0.00;87.60;;;;;;5033412;28;20183;-90
2023/02/05 03:30:56;;;;;;;13.37;12.27;;;0.00;87.70;;;;;;5034417;28;20230;-90
2023/02/05 03:33:49;;;;;;;14.13;13.10;;;0.00;87.70;;;;;;5033292;28;20171;-92
2023/02/05 03:36:44;;;;;;;13.00;12.03;;;0.00;87.80;;;;;;5033196;28;20210;-90
2023/02/05 03:39:39;;;;;;;14.37;13.17;;;0.00;87.70;;;;;;5033304;28;20199;-90
2023/02/05 03:42:26;;;;;;;13.70;12.43;;;0.00;87.80;;;;;;5034317;28;20191;-90
2023/02/05 03:45:09;;;;;;;17.03;12.47;;;0.00;87.90;;;;;;5033151;28;20170;-90
2023/02/05 03:48:06;;;;;;;12.87;11.80;;;0.00;88.00;;;;;;5033840;28;20193;-91
2023/02/05 03:50:39;;;;;;;13.00;12.00;;;0.00;88.00;;;;;;5033716;28;20228;-90
2023/02/05 03:53:32;;;;;;;12.70;11.70;;;0.00;87.90;;;;;;5032924;28;20199;-90
2023/02/05 03:56:04;;;;;;;13.57;12.50;;;0.00;88.00;;;;;;5034014;28;20578;-91
2023/02/05 03:58:38;;;;;;;13.50;12.33;;;0.00;87.90;;;;;;5032827;28;20168;-91
2023/02/05 04:01:06;;;;;;;12.20;11.30;;;0.00;88.00;;;;;;5032804;28;20195;-91
2023/02/05 04:03:31;;;;;;;12.83;11.63;;;0.10;88.10;;;;;;5034337;28;20232;-91
2023/02/05 04:05:57;;;;;;;14.03;11.80;;;0.10;87.80;;;;;;5032648;28;20177;-91
2023/02/05 04:08:23;;;;;;;13.20;12.10;;;0.10;87.70;;;;;;5033363;28;20660;-92
2023/02/05 04:10:48;;;;;;;12.50;11.50;;;0.00;87.50;;;;;;5033553;28;20617;-90
2023/02/05 04:13:14;;;;;;;12.37;11.37;;;0.10;87.50;;;;;;5032558;28;20570;-91
2023/02/05 04:15:39;;;;;;;12.17;11.23;;;0.10;87.60;;;;;;5032535;28;20673;-90
2023/02/05 04:18:06;;;;;;;12.70;11.37;;;0.10;87.40;;;;;;5032586;28;20181;-91
2023/02/05 04:20:31;;;;;;;13.83;11.87;;;0.20;87.40;;;;;;5033543;28;20565;-90
2023/02/05 04:22:57;;;;;;;12.70;11.50;;;0.20;87.30;;;;;;5032485;28;20278;-90
2023/02/05 04:25:22;;;;;;;11.97;11.07;;;0.10;87.30;;;;;;5032476;28;20187;-90
2023/02/05 04:27:48;;;;;;;12.23;11.23;;;0.10;87.30;;;;;;5033507;28;20203;-90
2023/02/05 04:30:13;;;;;;;13.20;12.13;;;0.20;87.30;;;;;;5032309;28;20561;-90
2023/02/05 04:32:40;;;;;;;12.17;11.20;;;0.20;87.20;;;;;;5032376;28;20219;-90
2023/02/05 04:35:06;;;;;;;11.97;10.97;;;0.20;87.20;;;;;;5032499;28;20545;-90
2023/02/05 04:37:31;;;;;;;12.73;11.53;;;0.20;87.10;;;;;;5032077;28;20203;-90
2023/02/05 04:39:56;;;;;;;11.00;10.17;;;0.20;86.90;;;;;;5032190;28;20307;-90
2023/02/05 04:42:22;;;;;;;12.83;10.60;;;0.30;87.00;;;;;;5032206;28;20323;-91
2023/02/05 04:44:48;;;;;;;12.57;11.50;;;0.20;86.90;;;;;;5032419;28;20672;-90
2023/02/05 04:47:13;;;;;;;12.63;11.67;;;0.20;86.90;;;;;;5032174;28;20206;-90
2023/02/05 04:49:39;;;;;;;12.10;10.97;;;0.20;86.90;;;;;;5032904;28;20634;-91
2023/02/05 04:52:06;;;;;;;12.10;11.07;;;0.30;87.00;;;;;;5032021;28;20291;-90
2023/02/05 04:54:31;;;;;;;12.20;11.27;;;0.30;86.90;;;;;;5032035;28;20556;-90
2023/02/05 04:56:57;;;;;;;12.80;11.47;;;0.30;86.90;;;;;;5031998;28;20350;-90
2023/02/05 04:59:22;;;;;;;12.60;11.60;;;0.40;86.80;;;;;;5033124;28;20201;-90
2023/02/05 05:01:48;;;;;;;13.00;11.80;;;0.30;86.70;;;;;;5031947;28;20569;-90
2023/02/05 05:04:14;;;;;;;12.37;11.47;;;0.30;86.80;;;;;;5031942;28;20211;-90
2023/02/05 05:06:39;;;;;;;12.03;10.80;;;0.30;86.80;;;;;;5031990;28;20257;-90
2023/02/05 05:09:04;;;;;;;11.97;11.00;;;0.40;86.80;;;;;;5031955;28;20665;-90
2023/02/05 05:11:30;;;;;;;13.00;12.00;;;0.40;86.60;;;;;;5031920;28;20202;-90
2023/02/05 05:13:56;;;;;;;12.23;11.33;;;0.40;86.60;;;;;;5031916;28;20175;-90
2023/02/05 05:16:22;;;;;;;12.30;11.20;;;0.30;86.40;;;;;;5031930;28;20205;-91
2023/02/05 05:18:51;;;;;;;13.47;12.27;;;0.30;86.40;;;;;;5033044;28;20172;-90
2023/02/05 05:21:16;;;;;;;12.23;11.37;;;0.30;86.50;;;;;;5032955;28;20627;-90
2023/02/05 05:23:42;;;;;;;12.63;11.67;;;0.30;86.60;;;;;;5031839;28;20185;-90
2023/02/05 05:26:10;;;;;;;12.63;11.63;;;0.30;86.60;;;;;;5031795;28;20552;-90
2023/02/05 05:28:36;;;;;;;12.40;11.17;;;0.30;86.70;;;;;;5031717;28;20180;-90
2023/02/05 05:31:15;;;;;;;12.40;11.60;;;0.30;86.70;;;;;;5031679;28;20253;-91
2023/02/05 05:33:41;;;;;;;13.03;12.03;;;0.30;86.80;;;;;;5031709;28;20196;-91
2023/02/05 05:36:07;;;;;;;13.33;11.97;;;0.30;86.80;;;;;;5031758;28;20246;-90
2023/02/05 05:38:32;;;;;;;12.97;11.93;;;0.40;86.90;;;;;;5031670;28;20170;-90
2023/02/05 05:43:47;;;;;;;12.10;11.20;;;0.40;86.90;;;;;;5033615;28;20256;-90
2023/02/05 05:46:22;;;;;;;12.80;11.73;;;0.40;86.90;;;;;;5035493;28;20704;-91
2023/02/05 05:48:56;;;;;;;12.70;11.60;;;0.50;86.70;;;;;;5035279;28;20195;-91
2023/02/05 05:51:23;;;;;;;12.80;11.47;;;0.50;86.60;;;;;;5036527;28;20199;-90
2023/02/05 05:53:49;;;;;;;13.40;12.50;;;0.50;86.60;;;;;;5035214;28;20186;-91
2023/02/05 05:56:16;;;;;;;13.50;12.37;;;0.50;86.50;;;;;;5035743;28;20199;-90
2023/02/05 05:58:42;;;;;;;13.40;12.30;;;0.50;86.40;;;;;;5035007;28;20212;-91
2023/02/05 06:01:08;;;;;;;12.33;11.43;;;0.50;86.40;;;;;;5035034;28;20238;-90
2023/02/05 06:03:34;;;;;;;12.80;11.53;;;0.30;86.30;;;;;;5035105;28;20206;-91
2023/02/05 06:06:02;;;;;;;12.53;11.50;;;0.30;86.60;;;;;;5035022;28;20176;-91
2023/02/05 06:08:27;;;;;;;13.13;12.03;;;0.30;86.60;;;;;;5034960;28;20174;-91
2023/02/05 06:10:53;;;;;;;13.17;12.17;;;0.40;86.80;;;;;;5034756;28;20203;-91
2023/02/05 06:13:18;;;;;;;13.53;12.50;;;0.40;86.60;;;;;;5034915;28;20220;-91
2023/02/05 06:15:44;;;;;;;12.90;12.00;;;0.40;86.60;;;;;;5035951;28;20205;-90
2023/02/05 06:18:10;;;;;;;12.87;11.97;;;0.30;86.50;;;;;;5035274;28;20177;-92
2023/02/05 06:20:35;;;;;;;14.37;13.37;;;0.40;86.50;;;;;;5036598;28;20192;-91
2023/02/05 06:23:01;;;;;;;13.60;12.70;;;0.30;86.50;;;;;;5034629;28;20184;-90
2023/02/05 06:25:26;;;;;;;13.63;12.63;;;0.30;86.50;;;;;;5034580;28;20267;-91
2023/02/05 06:27:52;;;;;;;14.30;12.97;;;0.30;86.50;;;;;;5035603;28;20233;-90
2023/02/05 06:30:17;;;;;;;13.70;12.40;;;0.30;86.60;;;;;;5034507;28;20179;-90
2023/02/05 06:32:43;;;;;;;12.90;11.90;;;0.20;86.50;;;;;;5034811;28;20256;-90
2023/02/05 06:35:08;;;;;;;12.97;12.07;;;0.20;86.60;;;;;;5034436;28;20175;-91
2023/02/05 06:37:34;;;;;;;13.63;12.53;;;0.20;86.80;;;;;;5035476;28;20196;-91
2023/02/05 06:39:59;;;;;;;13.30;12.40;;;0.20;86.90;;;;;;5034357;28;20191;-91
2023/02/05 06:42:25;;;;;;;13.47;12.37;;;0.20;86.80;;;;;;5034212;28;20574;-91
2023/02/05 06:44:50;;;;;;;13.93;12.80;;;0.10;86.90;;;;;;5034199;28;20184;-91
2023/02/05 06:47:16;;;;;;;13.57;12.37;;;0.20;87.10;;;;;;5034029;28;20654;-91
2023/02/05 06:49:41;;;;;;;13.00;12.13;;;0.20;87.10;;;;;;5034220;28;20177;-91
2023/02/05 06:52:07;;;;;;;13.27;12.27;;;0.10;87.10;;;;;;5034166;28;20210;-91
2023/02/05 06:54:32;;;;;;;13.47;12.33;;;0.20;87.30;;;;;;5034110;28;20180;-90
2023/02/05 06:56:58;;;;;;;14.23;12.90;;;0.20;87.30;;;;;;5032896;28;20218;-91
2023/02/05 06:59:23;;;;;;;14.17;13.17;;;0.20;87.30;;;;;;5033999;28;20278;-91
2023/02/05 07:01:49;;;;;;;14.90;13.50;;;0.30;87.30;;;;;;5033937;28;20265;-91
2023/02/05 07:04:14;;;;;;;13.57;12.67;;;0.30;87.10;;;;;;5033901;28;20625;-90
2023/02/05 07:06:40;;;;;;;13.63;12.53;;;0.20;87.20;;;;;;5033916;28;20187;-90
2023/02/05 07:09:05;;;;;;;13.43;12.43;;;0.30;87.20;;;;;;5034665;28;20274;-90
2023/02/05 07:11:31;;;;;;;14.80;13.70;;;0.30;87.10;;;;;;5033777;28;20221;-91
2023/02/05 07:14:00;;;;;;;14.80;13.63;;;0.30;87.00;;;;;;5034971;28;20263;-91
2023/02/05 07:16:29;;;;;;;14.57;13.57;;;0.30;87.10;;;;;;5033576;28;20221;-91
2023/02/05 07:18:54;;;;;;;14.53;13.33;;;0.20;87.10;;;;;;5033551;28;20173;-91
2023/02/05 07:21:20;;;;;;;13.50;12.57;;;0.20;87.20;;;;;;5033839;28;20199;-91
2023/02/05 07:23:45;;;;;;;13.97;12.80;;;0.20;87.20;;;;;;5035019;28;20184;-91
2023/02/05 07:26:14;;;;;;;13.77;12.67;;;0.20;87.30;;;;;;5034675;28;20251;-90
2023/02/05 07:28:40;;;;;;;14.43;13.10;;;0.20;87.40;;;;;;5033780;28;20179;-90
2023/02/05 07:31:08;;;;;;;14.27;13.07;;;0.20;87.50;;;;;;5033395;28;20213;-91
2023/02/05 07:33:35;;;;;;;13.10;12.10;;;0.10;87.50;;;;;;5033389;28;20559;-90
2023/02/05 07:36:06;;;;;;;14.17;13.07;;;0.20;87.50;;;;;;5033199;28;20245;-91
2023/02/05 07:38:33;;;;;;;13.73;12.60;;;0.20;87.50;;;;;;5033222;28;20649;-90
2023/02/05 07:41:01;;;;;;;12.67;11.57;;;0.30;87.50;;;;;;5033199;28;20691;-91
2023/02/05 07:43:27;;;;;;;12.97;11.97;;;0.30;87.50;;;;;;5034396;28;20272;-91
2023/02/05 07:46:04;;;;;;;13.33;12.43;;;0.30;87.60;;;;;;5033315;28;20645;-90
2023/02/05 07:48:30;;;;;;;13.50;12.50;;;0.30;87.60;;;;;;5032874;28;20229;-91
2023/02/05 07:50:55;;;;;;;13.37;12.27;;;0.40;87.60;;;;;;5032920;28;20301;-90
2023/02/05 07:53:21;;;;;;;13.87;12.83;;;0.40;87.50;;;;;;5032958;28;20219;-91
2023/02/05 07:55:47;;;;;;;12.73;11.70;;;0.40;87.40;;;;;;5032923;28;20233;-91
2023/02/05 07:58:13;;;;;;;13.13;12.10;;;0.40;87.30;;;;;;5034422;28;20184;-90
2023/02/05 08:00:39;;;;;;;12.47;11.60;;;0.40;87.20;;;;;;5033026;28;20227;-91
2023/02/05 08:03:05;;;;;;;13.73;12.63;;;0.40;87.10;;;;;;5033273;28;20180;-91
2023/02/05 08:05:30;;;;;;;13.10;12.00;;;0.40;87.20;;;;;;5032987;28;20184;-90
2023/02/05 08:07:56;;;;;;;13.40;12.33;;;0.50;87.20;;;;;;5032679;28;20176;-90
2023/02/05 08:10:22;;;;;;;13.20;12.20;;;0.50;87.10;;;;;;5032852;28;20179;-91
2023/02/05 08:12:47;;;;;;;13.23;12.27;;;0.50;87.00;;;;;;5034324;28;20177;-91
2023/02/05 08:15:13;;;;;;;13.27;12.07;;;0.50;87.10;;;;;;5032925;28;20190;-91
2023/02/05 08:17:39;;;;;;;13.50;12.30;;;0.60;87.00;;;;;;5032947;28;20210;-91
2023/02/05 08:20:08;;;;;;;13.30;12.30;;;0.60;87.00;;;;;;5032708;28;20176;-91
2023/02/05 08:22:36;;;;;;;13.03;11.97;;;0.60;86.90;;;;;;5032669;28;20709;-91
2023/02/05 08:25:04;;;;;;;13.50;12.43;;;0.60;87.00;;;;;;5032732;28;20258;-92
2023/02/05 08:27:31;;;;;;;14.40;13.13;;;0.50;87.00;;;;;;5032652;28;20206;-92
2023/02/05 08:29:57;;;;;;;13.70;12.60;;;0.60;87.00;;;;;;5032623;28;20179;-92
2023/02/05 08:32:22;;;;;;;12.93;11.57;;;0.70;86.90;;;;;;5032520;28;20211;-91
2023/02/05 08:34:48;;;;;;;12.77;11.67;;;0.70;86.80;;;;;;5032518;28;20592;-91
2023/02/05 08:37:13;;;;;;;14.30;12.57;;;0.70;86.80;;;;;;5032362;28;20739;-91
2023/02/05 08:39:39;;;;;;;13.73;12.60;;;0.70;86.80;;;;;;5032350;28;20180;-90
2023/02/05 08:42:05;;;;;;;13.53;12.50;;;0.80;86.70;;;;;;5033370;28;20196;-90
2023/02/05 08:44:30;;;;;;;15.20;13.80;;;0.80;86.80;;;;;;5032151;28;20179;-90
2023/02/05 08:46:56;;;;;;;14.83;13.53;;;0.80;86.90;;;;;;5033511;28;20184;-90
2023/02/05 08:49:22;;;;;;;14.10;13.00;;;0.80;86.80;;;;;;5032199;28;20180;-91
2023/02/05 08:51:47;;;;;;;14.40;13.03;;;0.80;86.80;;;;;;5032094;28;20208;-90
2023/02/05 08:54:14;;;;;;;14.40;13.40;;;0.80;86.80;;;;;;5032023;28;20227;-90
2023/02/05 08:56:40;;;;;;;13.87;12.77;;;0.80;86.90;;;;;;5031945;28;20235;-90
2023/02/05 08:59:07;;;;;;;14.40;13.30;;;0.90;86.90;;;;;;5032205;28;20179;-90
2023/02/05 09:01:35;;;;;;;13.67;12.50;;;0.90;86.80;;;;;;5031931;28;20295;-90
2023/02/05 09:04:00;;;;;;;13.40;12.37;;;0.90;86.90;;;;;;5032242;28;20245;-91
2023/02/05 09:06:26;;;;;;;14.47;12.97;;;0.90;86.70;;;;;;5032037;28;20646;-89
2023/02/05 09:08:51;;;;;;;15.70;14.10;;;0.90;86.60;;;;;;5032034;28;20179;-89
2023/02/05 09:11:25;;;;;;;14.37;13.27;;;0.90;86.50;;;;;;5031848;28;20693;-88
2023/02/05 09:13:51;;;;;;;14.30;13.10;;;0.90;86.60;;;;;;5032601;28;20207;-90
2023/02/05 09:16:17;;;;;;;14.70;13.60;;;0.90;86.70;;;;;;5031908;28;20208;-90
2023/02/05 09:18:42;;;;;;;15.10;13.87;;;0.90;86.70;;;;;;5033780;28;20183;-88
2023/02/05 09:21:09;;;;;;;14.97;13.87;;;0.90;86.80;;;;;;5035781;28;20546;-91
2023/02/05 09:23:35;;;;;;;14.67;13.33;;;0.90;86.80;;;;;;5037148;28;20168;-90
2023/02/05 09:26:01;;;;;;;14.60;13.30;;;0.90;86.90;;;;;;5035775;28;20188;-91
2023/02/05 09:28:26;;;;;;;14.80;13.60;;;1.00;87.00;;;;;;5036333;28;20179;-91
2023/02/05 09:30:52;;;;;;;15.57;14.27;;;1.00;87.10;;;;;;5035687;28;20199;-90
2023/02/05 09:33:17;;;;;;;14.93;13.60;;;1.00;87.10;;;;;;5035925;28;20179;-90
2023/02/05 09:35:43;;;;;;;14.60;13.37;;;1.00;87.20;;;;;;5035514;28;20188;-91
2023/02/05 09:38:12;;;;;;;15.07;13.67;;;1.00;87.30;;;;;;5035840;28;20173;-90
2023/02/05 09:41:01;;;;;;;13.87;12.73;;;1.00;87.30;;;;;;5036902;28;20211;-90
2023/02/05 09:43:54;;;;;;;14.33;13.03;;;1.10;87.30;;;;;;5036600;28;20166;-90
2023/02/05 09:46:27;;;;;;;14.33;13.00;;;1.10;87.30;;;;;;5035485;28;20192;-90
2023/02/05 09:48:56;;;;;;;14.20;12.90;;;1.10;87.20;;;;;;5037038;28;20197;-91
2023/02/05 09:51:35;;;;;;;13.97;12.97;;;1.10;87.10;;;;;;5035451;28;20202;-90
2023/02/05 09:54:31;;;;;;;13.90;12.60;;;1.20;87.00;;;;;;5036619;28;20159;-91
2023/02/05 09:57:03;;;;;;;13.87;12.87;;;1.20;87.00;;;;;;5034638;28;20207;-90
2023/02/05 09:59:30;;;;;;;14.43;13.20;;;1.20;86.90;;;;;;5036564;28;20145;-91
2023/02/05 10:01:58;;;;;;;13.97;12.87;;;1.20;86.80;;;;;;5035116;28;20197;-90
2023/02/05 10:04:26;;;;;;;14.50;13.13;;;1.20;86.70;;;;;;5035237;28;20267;-90
2023/02/05 10:07:14;;;;;;;14.30;12.73;;;1.20;86.60;;;;;;5035143;28;20185;-90
2023/02/05 10:09:43;;;;;;;14.67;13.27;;;1.20;86.40;;;;;;5035009;28;20179;-89
2023/02/05 10:12:46;;;;;;;14.67;13.57;;;1.20;86.20;;;;;;5035371;28;20747;-91
2023/02/05 10:15:33;;;;;;;14.90;13.80;;;1.30;86.10;;;;;;5035118;28;20218;-90
2023/02/05 10:18:28;;;;;;;15.03;13.77;;;1.30;86.20;;;;;;5005955;28;20214;-90
2023/02/05 10:21:24;;;;;;;13.97;12.90;;;1.40;86.30;;;;;;5034918;28;20204;-90
2023/02/05 10:24:19;;;;;;;15.57;14.27;;;1.30;86.20;;;;;;5034843;28;20531;-90
2023/02/05 10:26:50;;;;;;;15.43;14.03;;;1.30;86.20;;;;;;5035448;28;20168;-90
2023/02/05 10:29:32;;;;;;;15.20;14.03;;;1.30;86.20;;;;;;5034660;28;20180;-91
2023/02/05 10:32:18;;;;;;;15.97;14.63;;;1.30;86.30;;;;;;5034470;28;20290;-90
2023/02/05 10:34:49;;;;;;;16.70;15.43;;;1.30;86.30;;;;;;5036654;28;20646;-90
2023/02/05 10:37:18;;;;;;;15.93;14.53;;;1.40;86.50;;;;;;5035321;28;20759;-90
2023/02/05 10:39:45;;;;;;;15.03;13.83;;;1.40;86.70;;;;;;5035160;28;20208;-90
2023/02/05 10:42:18;;;;;;;16.27;15.03;;;1.40;86.70;;;;;;5035134;28;20200;-90
2023/02/05 10:44:47;;;;;;;16.17;14.77;;;1.40;86.70;;;;;;5036466;28;20173;-91
2023/02/05 10:47:23;;;;;;;15.93;13.90;;;1.30;86.70;;;;;;5035137;28;20206;-90
2023/02/05 10:50:06;;;;;;;16.30;14.90;;;1.30;86.70;;;;;;5036243;28;20181;-91
2023/02/05 10:52:31;;;;;;;15.87;14.67;;;1.30;86.80;;;;;;5035437;28;20175;-91
2023/02/05 10:54:58;;;;;;;17.60;15.90;;;1.30;86.80;;;;;;5036898;28;20177;-90
2023/02/05 10:57:30;;;;;;;17.33;15.77;;;1.30;87.10;;;;;;5035389;28;20248;-91
2023/02/05 10:59:59;;;;;;;18.13;16.63;;;1.20;87.30;;;;;;5035746;28;20172;-91
2023/02/05 11:02:36;;;;;;;16.57;15.27;;;1.20;87.60;;;;;;5036156;28;20196;-89
2023/02/05 11:05:06;;;;;;;17.30;16.00;;;1.20;87.80;;;;;;5034766;28;20171;-90
2023/02/05 11:07:39;;;;;;;17.50;16.10;;;1.30;88.00;;;;;;5036218;28;20158;-89
2023/02/05 11:10:17;;;;;;;18.57;17.07;;;1.30;88.20;;;;;;5036081;28;20172;-89
2023/02/05 11:12:45;;;;;;;17.73;16.27;;;1.30;88.60;;;;;;5034758;28;20169;-89
2023/02/05 11:15:22;;;;;;;20.57;18.57;;;1.30;88.70;;;;;;5034773;28;20224;-89
2023/02/05 11:17:57;;;;;;;17.53;15.93;;;1.40;88.90;;;;;;5034607;28;20204;-90
2023/02/05 11:20:38;;;;;;;17.43;15.97;;;1.40;89.00;;;;;;5034383;28;20172;-90
2023/02/05 11:23:20;;;;;;;17.43;15.90;;;1.50;89.20;;;;;;5034539;28;20607;-89
2023/02/05 11:25:57;;;;;;;17.47;16.00;;;1.40;89.20;;;;;;5033974;28;20200;-89
2023/02/05 11:28:27;;;;;;;20.50;17.47;;;1.40;89.20;;;;;;5035576;28;20183;-89
2023/02/05 11:30:53;;;;;;;18.13;16.47;;;1.50;89.30;;;;;;5034162;28;20655;-90
2023/02/05 11:33:25;;;;;;;18.43;16.63;;;1.50;89.20;;;;;;5035144;28;20226;-89
2023/02/05 11:35:55;;;;;;;17.37;16.10;;;1.50;89.20;;;;;;5033692;28;20646;-90
2023/02/05 11:38:42;;;;;;;18.03;16.27;;;1.50;89.30;;;;;;5033767;28;20200;-90
2023/02/05 11:41:10;;;;;;;18.00;16.57;;;1.60;89.30;;;;;;5033461;28;20197;-90
2023/02/05 11:43:45;;;;;;;17.70;16.33;;;1.60;89.40;;;;;;5033605;28;20222;-89
2023/02/05 11:46:16;;;;;;;18.17;16.47;;;1.60;89.40;;;;;;5035532;28;20161;-89
2023/02/05 11:48:59;;;;;;;17.43;15.93;;;1.50;89.20;;;;;;5033521;28;20200;-90
2023/02/05 11:51:34;;;;;;;17.63;16.10;;;1.60;89.30;;;;;;5033141;28;20669;-90
2023/02/05 11:54:03;;;;;;;18.60;16.80;;;1.60;89.20;;;;;;5032772;28;20211;-88
2023/02/05 11:56:29;;;;;;;17.83;16.33;;;1.70;89.10;;;;;;5032657;28;20221;-89
2023/02/05 11:59:03;;;;;;;17.90;16.60;;;1.70;88.90;;;;;;5032619;28;20556;-90
2023/02/05 12:01:34;;;;;;;17.23;15.83;;;1.70;89.00;;;;;;5033865;28;20196;-90
2023/02/05 12:04:12;;;;;;;16.37;14.77;;;1.70;88.80;;;;;;5034076;28;20242;-91
2023/02/05 12:06:56;;;;;;;16.40;15.20;;;1.70;88.70;;;;;;5032233;28;20183;-90
2023/02/05 12:09:24;;;;;;;17.60;16.20;;;1.80;88.60;;;;;;5032227;28;20541;-90
2023/02/05 12:12:07;;;;;;;18.23;16.80;;;1.80;88.60;;;;;;5032153;28;20204;-89
2023/02/05 12:14:51;;;;;;;19.30;17.70;;;1.80;88.50;;;;;;5033614;28;20166;-90
2023/02/05 12:17:30;;;;;;;20.30;18.50;;;1.80;88.60;;;;;;5033693;28;20189;-90
2023/02/05 12:20:20;;;;;;;20.10;18.40;;;1.70;88.80;;;;;;5032251;28;20180;-90
2023/02/05 12:23:21;;;;;;;18.63;16.87;;;1.70;88.90;;;;;;5032169;28;20621;-90
2023/02/05 12:26:01;;;;;;;19.63;18.03;;;1.70;89.10;;;;;;5032250;28;20178;-90
2023/02/05 12:28:44;;;;;;;21.07;18.87;;;1.60;89.10;;;;;;5032122;28;20672;-89
2023/02/05 12:31:21;;;;;;;20.67;18.80;;;1.60;89.20;;;;;;5032128;28;20200;-89
2023/02/05 12:34:00;;;;;;;20.50;18.90;;;1.60;89.30;;;;;;5031773;28;20197;-89
2023/02/05 12:37:00;;;;;;;22.57;20.43;;;1.60;89.50;;;;;;5031596;28;20238;-89
2023/02/05 12:39:31;;;;;;;21.13;18.80;;;1.60;89.60;;;;;;5028130;28;20662;-91
2023/02/05 12:42:06;;;;;;;21.33;19.57;;;1.60;89.70;;;;;;5032879;28;20189;-89
2023/02/05 12:44:56;;;;;;;24.07;21.27;;;1.60;89.70;;;;;;5032321;28;20198;-90
2023/02/05 12:47:40;;;;;;;22.37;20.07;;;1.70;89.80;;;;;;4997033;28;1052972;-90
2023/02/05 12:50:24;;;;;;;21.47;19.43;;;1.70;89.80;;;;;;5032349;28;20188;-90
2023/02/05 12:53:04;;;;;;;20.67;18.73;;;1.70;89.80;;;;;;5033256;28;20642;-90
2023/02/05 12:55:35;;;;;;;20.93;19.07;;;1.70;89.90;;;;;;5032164;28;20314;-90